Time;durP1;ratioP1;P1;durP2;ratioP2;P2;SDS_P1;SDS_P2;PMS_P1;PMS_P2;Temp;Humidity;BMP_temperature;BMP_pressure;BME280_temperature;BME280_humidity;BME280_pressure;Samples;Min_cycle;Max_cycle;Signal;HPM_P1;HPM_P2
2023/07/22 00:02:13;;;;;;;0.95;0.85;;;22.10;61.60;;;;;;6292105;28;20028;-68
2023/07/22 00:05:14;;;;;;;0.68;0.60;;;22.10;61.60;;;;;;6293342;28;20492;-68
2023/07/22 00:08:14;;;;;;;0.98;0.70;;;22.10;61.60;;;;;;6293044;28;20660;-68
2023/07/22 00:11:15;;;;;;;1.40;1.00;;;22.10;61.60;;;;;;6292157;28;20033;-68
2023/07/22 00:14:16;;;;;;;1.05;0.60;;;22.10;62.20;;;;;;6293012;28;20033;-68
2023/07/22 00:17:16;;;;;;;0.80;0.60;;;22.10;61.60;;;;;;6293231;28;20422;-68
2023/07/22 00:20:19;;;;;;;1.17;0.80;;;22.10;61.60;;;;;;6292630;28;20173;-68
2023/07/22 00:23:20;;;;;;;0.77;0.68;;;22.10;61.60;;;;;;6294611;28;20044;-68
2023/07/22 00:26:21;;;;;;;0.73;0.73;;;22.10;61.70;;;;;;6297556;28;20073;-68
2023/07/22 00:29:21;;;;;;;0.90;0.77;;;22.10;61.70;;;;;;6297810;28;20027;-68
2023/07/22 00:32:22;;;;;;;0.80;0.80;;;22.10;61.70;;;;;;6297726;28;20051;-68
2023/07/22 00:35:23;;;;;;;0.73;0.60;;;22.10;61.70;;;;;;6297533;28;20112;-68
2023/07/22 00:38:23;;;;;;;1.20;0.85;;;22.10;61.70;;;;;;6297289;28;20432;-68
2023/07/22 00:41:24;;;;;;;0.68;0.65;;;22.10;61.60;;;;;;6296042;28;20024;-68
2023/07/22 00:44:25;;;;;;;1.08;0.60;;;22.10;61.70;;;;;;6297407;28;20439;-68
2023/07/22 00:47:26;;;;;;;0.70;0.57;;;22.10;61.70;;;;;;6297763;28;20555;-68
2023/07/22 00:50:27;;;;;;;0.85;0.63;;;22.10;61.70;;;;;;6296882;28;20645;-68
2023/07/22 00:53:28;;;;;;;0.80;0.73;;;22.10;61.80;;;;;;6297490;28;20123;-68
2023/07/22 00:56:32;;;;;;;0.50;0.50;;;22.10;61.80;;;;;;6295638;28;20036;-68
2023/07/22 00:59:33;;;;;;;0.57;0.57;;;22.10;61.80;;;;;;6297142;28;20020;-68
2023/07/22 01:02:34;;;;;;;0.98;0.70;;;22.10;61.80;;;;;;6296880;28;20060;-68
2023/07/22 01:05:36;;;;;;;0.82;0.68;;;22.10;61.80;;;;;;6297113;28;20056;-68
2023/07/22 01:08:37;;;;;;;0.73;0.65;;;22.10;61.80;;;;;;6295461;28;20028;-68
2023/07/22 01:11:38;;;;;;;0.55;0.55;;;22.10;61.80;;;;;;6295607;28;20071;-68
2023/07/22 01:14:41;;;;;;;0.82;0.60;;;22.10;61.80;;;;;;6295190;28;20078;-68
2023/07/22 01:17:41;;;;;;;0.95;0.80;;;22.10;61.80;;;;;;6295377;28;20449;-68
2023/07/22 01:20:42;;;;;;;1.27;0.73;;;22.10;61.80;;;;;;6296667;28;20013;-68
2023/07/22 01:23:43;;;;;;;0.85;0.68;;;22.10;61.80;;;;;;6296624;28;20028;-68
2023/07/22 01:26:44;;;;;;;0.63;0.60;;;22.10;61.90;;;;;;6296385;28;20025;-68
2023/07/22 01:29:45;;;;;;;0.65;0.52;;;22.10;61.90;;;;;;6296110;28;20029;-68
2023/07/22 01:32:46;;;;;;;0.75;0.50;;;22.10;61.80;;;;;;6294987;28;20135;-68
2023/07/22 01:35:47;;;;;;;0.82;0.68;;;22.10;61.80;;;;;;6293954;28;20149;-68
2023/07/22 01:38:49;;;;;;;0.70;0.65;;;22.10;61.80;;;;;;6296420;28;20020;-68
2023/07/22 01:41:49;;;;;;;0.65;0.65;;;22.10;61.90;;;;;;6296379;28;20028;-68
2023/07/22 01:44:50;;;;;;;1.00;0.70;;;22.10;61.90;;;;;;6296265;28;20036;-68
2023/07/22 01:47:51;;;;;;;0.60;0.60;;;22.10;61.90;;;;;;6295018;28;20504;-68
2023/07/22 01:50:51;;;;;;;0.60;0.50;;;22.10;61.90;;;;;;6295874;28;20020;-68
2023/07/22 01:53:52;;;;;;;0.90;0.77;;;22.10;61.90;;;;;;6295972;28;20027;-68
2023/07/22 01:56:54;;;;;;;0.90;0.63;;;22.10;61.90;;;;;;6296004;28;20063;-68
2023/07/22 01:59:55;;;;;;;0.60;0.60;;;22.10;61.90;;;;;;6295808;28;20028;-68
2023/07/22 02:02:56;;;;;;;0.98;0.88;;;22.10;61.90;;;;;;6294365;28;20020;-68
2023/07/22 02:06:04;;;;;;;0.60;0.60;;;22.10;62.00;;;;;;6294389;28;20448;-68
2023/07/22 02:09:13;;;;;;;0.63;0.60;;;22.10;62.00;;;;;;6296062;28;20036;-68
2023/07/22 02:12:14;;;;;;;0.70;0.70;;;22.10;62.00;;;;;;6294223;28;20032;-68
2023/07/22 02:15:15;;;;;;;0.88;0.70;;;22.10;62.00;;;;;;6295191;28;20044;-68
2023/07/22 02:18:16;;;;;;;0.85;0.65;;;22.10;62.00;;;;;;6294190;28;20016;-68
2023/07/22 02:21:17;;;;;;;0.57;0.50;;;22.10;61.90;;;;;;6293899;28;20565;-68
2023/07/22 02:24:17;;;;;;;2.63;0.80;;;22.10;62.00;;;;;;6294690;28;20021;-69
2023/07/22 02:27:18;;;;;;;0.93;0.60;;;22.10;62.00;;;;;;6295218;28;20025;-68
2023/07/22 02:30:19;;;;;;;0.75;0.60;;;22.10;62.00;;;;;;6294867;28;20025;-68
2023/07/22 02:33:24;;;;;;;0.85;0.70;;;22.10;62.00;;;;;;6294860;28;20497;-68
2023/07/22 02:36:25;;;;;;;1.42;0.70;;;22.10;62.00;;;;;;6294811;28;20056;-68
2023/07/22 02:39:25;;;;;;;0.65;0.52;;;22.10;62.00;;;;;;6293234;28;20048;-68
2023/07/22 02:42:26;;;;;;;1.40;0.70;;;22.10;62.90;;;;;;6294324;28;20037;-68
2023/07/22 02:45:27;;;;;;;1.08;0.77;;;22.10;62.00;;;;;;6293236;28;20033;-68
2023/07/22 02:48:28;;;;;;;0.82;0.70;;;22.10;62.00;;;;;;6294512;28;20025;-68
2023/07/22 02:51:29;;;;;;;0.70;0.60;;;22.10;62.00;;;;;;6294324;28;20025;-68
2023/07/22 02:54:29;;;;;;;0.80;0.70;;;22.10;62.00;;;;;;6294452;28;20032;-68
2023/07/22 02:57:30;;;;;;;0.80;0.57;;;22.10;62.00;;;;;;6292970;28;20024;-68
2023/07/22 03:00:31;;;;;;;1.50;0.80;;;22.10;62.00;;;;;;6294511;28;20530;-68
2023/07/22 03:03:33;;;;;;;0.70;0.63;;;22.10;62.00;;;;;;6294032;28;20048;-68
2023/07/22 03:06:33;;;;;;;1.17;0.80;;;22.10;62.10;;;;;;6292832;28;20025;-68
2023/07/22 03:09:34;;;;;;;1.00;0.77;;;22.10;62.20;;;;;;6294265;28;20027;-68
2023/07/22 03:12:36;;;;;;;0.80;0.60;;;22.10;62.10;;;;;;6294205;28;20039;-68
2023/07/22 03:15:37;;;;;;;0.73;0.70;;;22.10;62.10;;;;;;6293470;28;20493;-68
2023/07/22 03:18:39;;;;;;;0.88;0.60;;;22.10;62.10;;;;;;6294109;28;20052;-68
2023/07/22 03:21:40;;;;;;;1.10;0.75;;;22.10;62.20;;;;;;6293536;28;20081;-68
2023/07/22 03:24:41;;;;;;;1.30;0.77;;;22.10;62.10;;;;;;6293747;28;20499;-68
2023/07/22 03:27:43;;;;;;;0.70;0.60;;;22.10;62.10;;;;;;6293986;28;20031;-68
2023/07/22 03:30:44;;;;;;;1.02;0.70;;;22.10;62.20;;;;;;6293990;28;20599;-68
2023/07/22 03:33:46;;;;;;;1.08;0.75;;;22.10;62.20;;;;;;6292152;28;20130;-67
2023/07/22 03:36:46;;;;;;;1.02;0.65;;;22.10;62.20;;;;;;6293486;28;20455;-68
2023/07/22 03:39:47;;;;;;;1.20;0.70;;;22.10;62.20;;;;;;6292410;28;20024;-68
2023/07/22 03:42:49;;;;;;;0.65;0.55;;;22.10;62.20;;;;;;6293930;28;20816;-67
2023/07/22 03:45:50;;;;;;;0.70;0.70;;;22.10;62.20;;;;;;6293450;28;20552;-68
2023/07/22 03:48:51;;;;;;;0.60;0.60;;;22.10;62.20;;;;;;6293832;28;20024;-68
2023/07/22 03:51:51;;;;;;;0.75;0.65;;;22.10;62.20;;;;;;6292068;28;20035;-68
2023/07/22 03:54:52;;;;;;;0.80;0.68;;;22.10;62.20;;;;;;6293271;28;20393;-68
2023/07/22 03:57:53;;;;;;;0.88;0.60;;;22.10;62.20;;;;;;6292762;28;20516;-68
2023/07/22 04:00:53;;;;;;;0.60;0.50;;;22.10;62.20;;;;;;6293408;28;20471;-68
2023/07/22 04:03:54;;;;;;;1.17;0.77;;;22.10;62.20;;;;;;6293358;28;20027;-68
2023/07/22 04:06:55;;;;;;;1.45;0.70;;;22.10;62.20;;;;;;6293391;28;20504;-68
2023/07/22 04:09:55;;;;;;;0.80;0.70;;;22.10;62.30;;;;;;6293301;28;20180;-68
2023/07/22 04:12:56;;;;;;;1.02;0.57;;;22.10;62.30;;;;;;6293109;28;20031;-68
2023/07/22 04:15:57;;;;;;;0.80;0.60;;;22.10;62.30;;;;;;6291626;28;20047;-68
2023/07/22 04:18:58;;;;;;;0.63;0.60;;;22.10;62.30;;;;;;6293547;28;20021;-68
2023/07/22 04:22:00;;;;;;;0.68;0.60;;;22.10;62.30;;;;;;6292803;28;20024;-70
2023/07/22 04:25:01;;;;;;;0.50;0.43;;;22.10;62.30;;;;;;6291007;28;20035;-70
2023/07/22 04:28:01;;;;;;;0.52;0.52;;;22.10;62.30;;;;;;6293169;28;20366;-68
2023/07/22 04:31:04;;;;;;;0.43;0.43;;;22.10;62.30;;;;;;6291643;28;20029;-70
2023/07/22 04:34:05;;;;;;;0.90;0.70;;;22.10;62.30;;;;;;6292302;28;20481;-70
2023/07/22 04:37:06;;;;;;;0.50;0.50;;;22.10;62.30;;;;;;6290865;28;20513;-69
2023/07/22 04:40:09;;;;;;;1.15;0.70;;;22.10;62.30;;;;;;6292765;28;20024;-70
2023/07/22 04:43:09;;;;;;;0.85;0.70;;;22.10;62.30;;;;;;6291208;28;20070;-69
2023/07/22 04:46:10;;;;;;;0.60;0.50;;;22.10;62.40;;;;;;6290862;28;20024;-70
2023/07/22 04:49:11;;;;;;;0.52;0.52;;;22.10;62.30;;;;;;6291336;28;20021;-70
2023/07/22 04:52:11;;;;;;;0.60;0.50;;;22.10;62.30;;;;;;6292532;28;20389;-70
2023/07/22 04:55:12;;;;;;;0.63;0.63;;;22.10;62.40;;;;;;6292274;28;20441;-70
2023/07/22 04:58:13;;;;;;;0.70;0.50;;;22.10;62.40;;;;;;6290739;28;20020;-70
2023/07/22 05:01:14;;;;;;;0.60;0.60;;;22.10;62.40;;;;;;6292201;28;20020;-69
2023/07/22 05:04:14;;;;;;;0.95;0.68;;;22.10;62.30;;;;;;6291210;28;20490;-70
2023/07/22 05:07:15;;;;;;;0.60;0.60;;;22.10;62.40;;;;;;6290629;28;20056;-69
2023/07/22 05:10:16;;;;;;;0.50;0.50;;;22.10;62.40;;;;;;6292089;28;20104;-70
2023/07/22 05:13:17;;;;;;;0.63;0.60;;;22.10;62.40;;;;;;6295541;28;20161;-69
2023/07/22 05:16:18;;;;;;;0.52;0.50;;;22.10;62.40;;;;;;6295210;28;20063;-70
2023/07/22 05:19:20;;;;;;;0.40;0.40;;;22.10;62.40;;;;;;6294847;28;20025;-70
2023/07/22 05:22:21;;;;;;;0.70;0.45;;;22.10;62.50;;;;;;6296481;28;20020;-70
2023/07/22 05:25:22;;;;;;;0.55;0.55;;;22.10;62.40;;;;;;6296186;28;20501;-69
2023/07/22 05:28:22;;;;;;;0.40;0.40;;;22.10;62.40;;;;;;6296645;28;20048;-70
2023/07/22 05:31:23;;;;;;;0.50;0.50;;;22.10;62.50;;;;;;6295691;28;20508;-69
2023/07/22 05:34:24;;;;;;;0.60;0.60;;;22.10;62.40;;;;;;6294748;28;20090;-69
2023/07/22 05:37:25;;;;;;;0.40;0.40;;;22.10;62.50;;;;;;6295882;28;20680;-70
2023/07/22 05:40:25;;;;;;;0.63;0.50;;;22.10;62.50;;;;;;6294909;28;20016;-70
2023/07/22 05:43:26;;;;;;;1.10;0.50;;;22.10;62.40;;;;;;6294508;28;20075;-70
2023/07/22 05:46:27;;;;;;;0.88;0.68;;;22.10;62.50;;;;;;6295552;28;20537;-69
2023/07/22 05:49:28;;;;;;;0.60;0.60;;;22.10;62.50;;;;;;6295772;28;20099;-70
2023/07/22 05:52:28;;;;;;;0.43;0.43;;;22.10;62.50;;;;;;6295741;28;20024;-70
2023/07/22 05:55:29;;;;;;;0.50;0.50;;;22.10;62.50;;;;;;6294663;28;20115;-69
2023/07/22 05:58:29;;;;;;;0.60;0.60;;;22.10;62.50;;;;;;6294673;28;20024;-69
2023/07/22 06:01:31;;;;;;;0.80;0.52;;;22.10;62.50;;;;;;6295448;28;20633;-70
2023/07/22 06:04:31;;;;;;;0.60;0.50;;;22.10;63.30;;;;;;6295183;28;20067;-70
2023/07/22 06:07:32;;;;;;;0.55;0.47;;;22.10;62.50;;;;;;6293884;28;20024;-70
2023/07/22 06:10:33;;;;;;;0.65;0.57;;;22.10;62.50;;;;;;6295567;28;20050;-70
2023/07/22 06:13:33;;;;;;;0.70;0.70;;;22.10;62.50;;;;;;6293905;28;20074;-70
2023/07/22 06:16:34;;;;;;;0.93;0.73;;;22.10;62.50;;;;;;6293788;28;20020;-69
2023/07/22 06:19:35;;;;;;;0.50;0.50;;;22.10;62.50;;;;;;6293724;28;20055;-69
2023/07/22 06:22:35;;;;;;;0.50;0.50;;;22.10;62.50;;;;;;6294217;28;20414;-70
2023/07/22 06:25:37;;;;;;;0.60;0.50;;;22.10;62.50;;;;;;6293408;28;20428;-70
2023/07/22 06:28:37;;;;;;;0.77;0.60;;;22.10;62.50;;;;;;6294691;28;20109;-70
2023/07/22 06:31:38;;;;;;;0.70;0.70;;;22.10;62.50;;;;;;6294408;28;20024;-70
2023/07/22 06:34:38;;;;;;;1.30;0.70;;;22.10;62.50;;;;;;6294227;28;20054;-70
2023/07/22 06:37:40;;;;;;;0.57;0.45;;;22.10;62.50;;;;;;6293082;28;20024;-70
2023/07/22 06:40:40;;;;;;;0.70;0.60;;;22.10;62.50;;;;;;6293319;28;20020;-69
2023/07/22 06:43:41;;;;;;;0.60;0.60;;;22.10;62.50;;;;;;6294215;28;20020;-70
2023/07/22 06:46:42;;;;;;;0.85;0.50;;;22.10;62.60;;;;;;6292935;28;20028;-70
2023/07/22 06:49:43;;;;;;;0.55;0.40;;;22.10;62.50;;;;;;6292771;28;20106;-70
2023/07/22 06:52:43;;;;;;;0.63;0.63;;;22.10;62.50;;;;;;6293822;28;20132;-69
2023/07/22 06:55:52;;;;;;;0.45;0.45;;;22.10;62.50;;;;;;6294076;28;20024;-69
2023/07/22 06:58:53;;;;;;;0.70;0.70;;;22.10;62.60;;;;;;6292605;28;20397;-70
2023/07/22 07:01:53;;;;;;;0.75;0.60;;;22.10;62.50;;;;;;6293945;28;20039;-70
2023/07/22 07:04:54;;;;;;;0.80;0.70;;;22.10;62.60;;;;;;6292450;28;20136;-69
2023/07/22 07:07:55;;;;;;;0.60;0.60;;;22.10;62.60;;;;;;6292790;28;20082;-70
2023/07/22 07:10:56;;;;;;;0.50;0.50;;;22.10;62.60;;;;;;6292246;28;20025;-70
2023/07/22 07:13:57;;;;;;;0.50;0.50;;;22.10;62.50;;;;;;6292368;28;20035;-69
2023/07/22 07:16:58;;;;;;;0.70;0.50;;;22.10;62.60;;;;;;6292197;28;20455;-69
2023/07/22 07:19:59;;;;;;;0.50;0.50;;;22.10;62.60;;;;;;6293728;28;20024;-69
2023/07/22 07:23:00;;;;;;;0.70;0.52;;;22.10;62.60;;;;;;6293117;28;20016;-69
2023/07/22 07:26:02;;;;;;;0.60;0.50;;;22.10;62.60;;;;;;6291973;28;20074;-69
2023/07/22 07:29:02;;;;;;;0.30;0.30;;;22.10;62.60;;;;;;6291996;28;20113;-69
2023/07/22 07:32:03;;;;;;;0.50;0.45;;;22.10;62.60;;;;;;6292786;28;20429;-69
2023/07/22 07:35:04;;;;;;;0.52;0.50;;;22.10;62.60;;;;;;6292546;28;20155;-69
2023/07/22 07:38:05;;;;;;;0.40;0.40;;;22.10;62.60;;;;;;6293353;28;20029;-69
2023/07/22 07:41:08;;;;;;;1.02;0.63;;;22.10;62.60;;;;;;6291841;28;20091;-69
2023/07/22 07:44:09;;;;;;;0.60;0.60;;;22.10;62.60;;;;;;6291792;28;20086;-68
2023/07/22 07:47:09;;;;;;;0.82;0.60;;;22.10;62.60;;;;;;6291988;28;20627;-69
2023/07/22 07:50:10;;;;;;;0.38;0.38;;;22.10;62.60;;;;;;6291841;28;20085;-69
2023/07/22 07:53:11;;;;;;;0.60;0.60;;;22.10;62.60;;;;;;6292642;28;20028;-69
2023/07/22 07:56:12;;;;;;;0.60;0.40;;;22.10;63.50;;;;;;6292604;28;20032;-69
2023/07/22 07:59:13;;;;;;;0.60;0.47;;;22.10;62.60;;;;;;6291495;28;20035;-69
2023/07/22 08:02:13;;;;;;;0.43;0.43;;;22.10;62.60;;;;;;6291593;28;20451;-69
2023/07/22 08:05:14;;;;;;;0.57;0.57;;;22.10;62.60;;;;;;6292667;28;20788;-69
2023/07/22 08:08:15;;;;;;;0.63;0.60;;;22.10;62.60;;;;;;6291508;28;20393;-69
2023/07/22 08:11:16;;;;;;;0.50;0.50;;;22.10;62.70;;;;;;6291903;28;20551;-69
2023/07/22 08:14:18;;;;;;;0.50;0.50;;;22.10;62.60;;;;;;6292597;28;20032;-68
2023/07/22 08:17:18;;;;;;;0.75;0.52;;;22.10;62.60;;;;;;6292729;28;20036;-69
2023/07/22 08:20:19;;;;;;;0.82;0.77;;;22.10;62.60;;;;;;6291013;28;20457;-69
2023/07/22 08:23:20;;;;;;;0.50;0.50;;;22.10;62.60;;;;;;6292410;28;20036;-69
2023/07/22 08:26:21;;;;;;;0.65;0.60;;;22.10;62.60;;;;;;6290940;28;20043;-69
2023/07/22 08:29:22;;;;;;;0.63;0.50;;;22.10;62.60;;;;;;6292777;28;20056;-69
2023/07/22 08:32:23;;;;;;;0.82;0.80;;;22.10;62.60;;;;;;6292317;28;20345;-69
2023/07/22 08:35:24;;;;;;;0.63;0.60;;;22.10;62.60;;;;;;6292410;28;20043;-69
2023/07/22 08:38:25;;;;;;;0.60;0.50;;;22.10;62.60;;;;;;6291708;28;20033;-69
2023/07/22 08:41:26;;;;;;;0.75;0.73;;;22.10;62.60;;;;;;6292361;28;20079;-69
2023/07/22 08:44:34;;;;;;;0.57;0.45;;;22.00;62.50;;;;;;6282898;28;20029;-66
2023/07/22 08:47:45;;;;;;;0.65;0.60;;;22.10;62.60;;;;;;6290360;28;20095;-68
2023/07/22 08:50:53;;;;;;;0.50;0.50;;;22.10;62.60;;;;;;6295180;28;20032;-65
2023/07/22 08:53:59;;;;;;;0.57;0.50;;;22.10;62.60;;;;;;6295311;28;20373;-67
2023/07/22 08:56:59;;;;;;;0.55;0.55;;;22.10;62.60;;;;;;6294566;28;20210;-67
2023/07/22 09:00:01;;;;;;;0.80;0.80;;;22.10;62.70;;;;;;6294412;28;20021;-68
2023/07/22 09:03:02;;;;;;;0.80;0.70;;;22.10;62.70;;;;;;6293650;28;20450;-68
2023/07/22 09:06:04;;;;;;;0.70;0.60;;;22.10;62.70;;;;;;6294245;28;20044;-67
2023/07/22 09:09:08;;;;;;;0.50;0.50;;;22.10;62.70;;;;;;6294933;28;20051;-67
2023/07/22 09:12:09;;;;;;;1.15;0.60;;;22.10;62.60;;;;;;6294544;28;20017;-67
2023/07/22 09:15:11;;;;;;;1.05;0.60;;;22.10;62.70;;;;;;6293613;28;20020;-67
2023/07/22 09:18:12;;;;;;;0.82;0.57;;;22.10;62.70;;;;;;6294451;28;20023;-67
2023/07/22 09:21:12;;;;;;;0.77;0.57;;;22.10;62.60;;;;;;6294361;28;20493;-68
2023/07/22 09:24:24;;;;;;;0.60;0.60;;;22.10;62.60;;;;;;6294063;28;20024;-67
2023/07/22 09:27:34;;;;;;;0.70;0.70;;;22.10;62.70;;;;;;6292533;28;20036;-67
2023/07/22 09:30:38;;;;;;;0.73;0.60;;;22.10;62.70;;;;;;6265465;28;20025;-67
2023/07/22 09:33:38;;;;;;;0.55;0.55;;;22.10;62.60;;;;;;6290813;28;20044;-67
2023/07/22 09:37:03;;;;;;;0.63;0.60;;;22.10;62.60;;;;;;6283254;28;20116;-67
2023/07/22 09:40:24;;;;;;;0.60;0.60;;;22.10;62.70;;;;;;6283976;28;20102;-67
2023/07/22 09:43:26;;;;;;;1.02;0.73;;;22.10;62.70;;;;;;6293732;28;20021;-67
2023/07/22 09:46:33;;;;;;;0.73;0.70;;;22.10;62.60;;;;;;6291741;28;20119;-68
2023/07/22 09:49:39;;;;;;;1.15;0.88;;;22.10;62.70;;;;;;6292558;28;20020;-67
2023/07/22 09:52:59;;;;;;;0.70;0.70;;;22.10;62.70;;;;;;6286844;28;20020;-67
2023/07/22 09:56:04;;;;;;;0.60;0.60;;;22.10;62.70;;;;;;6272614;28;20074;-66
2023/07/22 09:59:07;;;;;;;;;;;22.10;62.70;;;;;;6275376;28;20017;-67
2023/07/22 10:02:11;;;;;;;0.95;0.50;;;22.10;62.60;;;;;;6284139;28;19908;-67
2023/07/22 10:05:14;;;;;;;1.13;0.73;;;22.10;62.60;;;;;;6273939;28;20577;-67
2023/07/22 10:08:19;;;;;;;0.80;0.60;;;22.10;62.70;;;;;;6293529;28;20020;-67
2023/07/22 10:11:20;;;;;;;0.73;0.50;;;22.10;62.70;;;;;;6291720;28;20366;-68
2023/07/22 10:14:21;;;;;;;0.77;0.60;;;22.10;62.70;;;;;;6293049;28;20267;-67
2023/07/22 10:17:22;;;;;;;0.85;0.65;;;22.00;62.60;;;;;;6283722;28;20027;-67
2023/07/22 10:20:24;;;;;;;0.73;0.73;;;22.00;62.60;;;;;;6276689;28;20037;-67
2023/07/22 10:23:27;;;;;;;1.15;0.75;;;22.00;62.60;;;;;;6284642;28;20508;-67
2023/07/22 10:26:29;;;;;;;1.33;1.00;;;22.00;62.70;;;;;;6291264;28;20458;-68
2023/07/22 10:29:31;;;;;;;1.40;1.08;;;22.00;63.90;;;;;;6289746;28;20024;-68
2023/07/22 10:32:33;;;;;;;1.20;0.93;;;22.10;62.60;;;;;;6292255;28;20098;-67
2023/07/22 10:35:45;;;;;;;1.48;1.10;;;22.10;62.60;;;;;;6283516;28;20107;-67
2023/07/22 10:38:56;;;;;;;1.00;0.90;;;22.20;62.20;;;;;;6287210;28;20033;-68
2023/07/22 10:42:04;;;;;;;0.88;0.82;;;22.10;62.30;;;;;;6290467;28;20107;-67
2023/07/22 10:45:27;;;;;;;1.23;0.82;;;22.20;62.50;;;;;;6292532;28;20029;-70
2023/07/22 10:48:35;;;;;;;0.90;0.80;;;22.20;62.50;;;;;;6272812;28;20064;-70
2023/07/22 10:51:37;;;;;;;1.08;0.80;;;22.20;62.40;;;;;;6292598;28;20029;-70
2023/07/22 10:54:37;;;;;;;0.93;0.75;;;22.30;62.40;;;;;;6290711;28;20024;-69
2023/07/22 10:57:48;;;;;;;1.60;1.00;;;22.30;62.40;;;;;;6292350;28;20499;-70
2023/07/22 11:00:49;;;;;;;1.23;1.10;;;22.30;62.30;;;;;;6290888;28;20023;-70
2023/07/22 11:04:31;;;;;;;1.00;0.90;;;22.30;62.20;;;;;;6277124;28;20532;-69
2023/07/22 11:07:47;;;;;;;1.10;0.82;;;22.30;62.20;;;;;;6287131;28;20422;-70
2023/07/22 11:10:57;;;;;;;1.17;0.95;;;22.30;62.20;;;;;;6290911;28;20732;-70
2023/07/22 11:14:13;;;;;;;1.48;0.82;;;22.30;62.10;;;;;;6291415;28;20033;-69
2023/07/22 11:17:14;;;;;;;1.13;0.90;;;22.30;62.10;;;;;;6291604;28;20032;-70
2023/07/22 11:20:15;;;;;;;1.08;0.95;;;22.40;62.10;;;;;;6289706;28;20055;-70
2023/07/22 11:23:17;;;;;;;1.60;1.05;;;22.40;62.10;;;;;;6291021;28;20020;-70
2023/07/22 11:26:19;;;;;;;1.85;0.82;;;22.40;62.10;;;;;;6289009;28;20488;-70
2023/07/22 11:29:20;;;;;;;2.80;1.05;;;22.40;62.10;;;;;;6291190;28;20024;-68
2023/07/22 11:32:24;;;;;;;1.17;0.90;;;22.40;62.00;;;;;;6291522;28;20040;-67
2023/07/22 11:35:25;;;;;;;1.13;0.80;;;22.40;62.00;;;;;;6273784;28;21485;-69
2023/07/22 11:38:25;;;;;;;1.17;0.90;;;22.40;62.00;;;;;;6290178;28;20028;-68
2023/07/22 11:41:27;;;;;;;0.90;0.60;;;22.40;62.00;;;;;;6281748;28;20052;-68
2023/07/22 11:44:28;;;;;;;1.63;1.00;;;22.40;62.00;;;;;;6281496;28;20440;-68
2023/07/22 11:47:31;;;;;;;1.50;0.98;;;22.40;62.00;;;;;;6290326;28;20062;-68
2023/07/22 11:50:34;;;;;;;1.10;0.80;;;22.40;61.90;;;;;;6272696;28;20036;-67
2023/07/22 11:53:35;;;;;;;1.10;0.90;;;22.40;62.20;;;;;;6291047;28;20281;-68
2023/07/22 11:56:35;;;;;;;0.77;0.60;;;22.50;61.80;;;;;;6290560;28;20031;-68
2023/07/22 11:59:50;;;;;;;3.92;0.90;;;22.60;61.60;;;;;;6290985;28;20025;-68
2023/07/22 12:02:56;;;;;;;2.08;1.30;;;22.70;61.70;;;;;;6290922;28;20009;-67
2023/07/22 12:06:02;;;;;;;3.28;1.10;;;22.70;61.40;;;;;;6290446;28;20099;-68
2023/07/22 12:09:03;;;;;;;7.93;3.33;;;22.70;61.50;;;;;;6290765;28;20048;-67
2023/07/22 12:12:07;;;;;;;3.03;1.30;;;22.60;61.80;;;;;;6289595;28;20111;-67
2023/07/22 12:15:15;;;;;;;4.25;1.98;;;22.60;62.00;;;;;;6271740;28;20048;-68
2023/07/22 12:18:15;;;;;;;4.47;2.17;;;22.60;62.00;;;;;;6281636;28;20025;-68
2023/07/22 12:21:16;;;;;;;7.20;2.00;;;22.50;61.90;;;;;;6295342;28;20016;-68
2023/07/22 12:24:18;;;;;;;5.00;1.95;;;22.50;62.30;;;;;;6295686;28;20512;-68
2023/07/22 12:27:19;;;;;;;4.10;1.73;;;22.60;61.90;;;;;;6282244;28;20056;-70
2023/07/22 12:30:23;;;;;;;4.20;1.65;;;22.60;61.70;;;;;;6288645;28;20098;-69
2023/07/22 12:33:25;;;;;;;8.40;2.00;;;22.60;61.70;;;;;;6296955;28;20045;-68
2023/07/22 12:36:26;;;;;;;3.75;1.83;;;22.60;62.00;;;;;;6294691;28;20032;-68
2023/07/22 12:39:28;;;;;;;4.07;2.08;;;22.70;61.80;;;;;;6285670;28;20342;-68
2023/07/22 12:42:29;;;;;;;3.85;1.75;;;22.70;61.60;;;;;;6287045;28;20032;-68
2023/07/22 12:45:30;;;;;;;21.63;5.43;;;22.70;61.80;;;;;;6295335;28;20028;-67
2023/07/22 12:48:31;;;;;;;12.07;3.28;;;22.60;62.00;;;;;;6295708;28;20079;-68
2023/07/22 12:51:32;;;;;;;15.48;2.88;;;22.60;62.10;;;;;;6294173;28;20036;-68
2023/07/22 12:54:32;;;;;;;12.95;3.30;;;22.60;62.20;;;;;;6293131;28;20030;-68
2023/07/22 12:57:33;;;;;;;12.32;2.80;;;22.60;62.30;;;;;;6295271;28;20036;-67
2023/07/22 13:00:34;;;;;;;9.15;3.30;;;22.50;62.20;;;;;;6294802;28;20489;-68
2023/07/22 13:03:35;;;;;;;7.13;2.58;;;22.50;63.10;;;;;;6293746;28;20020;-68
2023/07/22 13:06:37;;;;;;;8.13;2.42;;;22.50;62.30;;;;;;6294295;28;20036;-68
2023/07/22 13:09:38;;;;;;;8.07;2.65;;;22.50;62.30;;;;;;6291872;28;20393;-66
2023/07/22 13:12:39;;;;;;;6.70;2.28;;;22.50;62.30;;;;;;6277326;28;20025;-68
2023/07/22 13:15:40;;;;;;;5.07;2.50;;;22.40;62.30;;;;;;6293906;28;20366;-67
2023/07/22 13:18:41;;;;;;;7.97;2.70;;;22.40;62.30;;;;;;6293157;28;20054;-67
2023/07/22 13:21:42;;;;;;;7.38;2.70;;;22.40;62.30;;;;;;6292024;28;20418;-67
2023/07/22 13:24:43;;;;;;;8.65;2.28;;;22.50;63.20;;;;;;6294381;28;20037;-67
2023/07/22 13:27:43;;;;;;;14.85;2.63;;;22.60;62.50;;;;;;6294054;28;20017;-67
2023/07/22 13:30:44;;;;;;;6.47;2.35;;;22.60;62.90;;;;;;6291465;28;20028;-67
2023/07/22 13:33:45;;;;;;;10.00;2.60;;;22.70;63.10;;;;;;6293081;28;20080;-67
2023/07/22 13:36:46;;;;;;;9.20;2.55;;;22.70;62.10;;;;;;6293510;28;20515;-67
2023/07/22 13:39:47;;;;;;;20.52;4.28;;;22.60;62.60;;;;;;6283358;28;20544;-67
2023/07/22 13:42:47;;;;;;;18.77;5.47;;;22.60;62.80;;;;;;6292096;28;20118;-67
2023/07/22 13:45:48;;;;;;;25.35;5.43;;;22.60;63.00;;;;;;6291951;28;20082;-67
2023/07/22 13:48:49;;;;;;;20.25;5.05;;;22.50;62.90;;;;;;6292857;28;20338;-67
2023/07/22 13:51:50;;;;;;;21.20;4.47;;;22.50;63.00;;;;;;6293167;28;20032;-67
2023/07/22 13:54:50;;;;;;;17.52;3.55;;;22.50;62.90;;;;;;6293919;28;20052;-66
2023/07/22 13:57:51;;;;;;;16.33;4.70;;;22.50;63.00;;;;;;6293314;28;20024;-67
2023/07/22 14:00:52;;;;;;;13.27;3.90;;;22.50;62.90;;;;;;6293452;28;20714;-67
2023/07/22 14:03:52;;;;;;;18.25;4.03;;;22.50;62.90;;;;;;6293997;28;20096;-66
2023/07/22 14:06:53;;;;;;;14.27;3.30;;;22.50;63.00;;;;;;6293196;28;20108;-67
2023/07/22 14:09:54;;;;;;;9.90;3.13;;;22.50;62.90;;;;;;6292186;28;20048;-67
2023/07/22 14:12:55;;;;;;;9.63;2.80;;;22.40;62.80;;;;;;6293043;28;20798;-67
2023/07/22 14:15:56;;;;;;;10.75;3.45;;;22.40;62.80;;;;;;6293211;28;20052;-68
2023/07/22 14:18:57;;;;;;;9.13;3.30;;;22.40;62.80;;;;;;6293549;28;20020;-68
2023/07/22 14:21:57;;;;;;;7.78;2.75;;;22.40;62.80;;;;;;6293264;28;20047;-68
2023/07/22 14:24:58;;;;;;;11.30;2.75;;;22.40;62.80;;;;;;6291436;28;20388;-69
2023/07/22 14:27:59;;;;;;;9.35;3.10;;;22.40;62.80;;;;;;6291279;28;20104;-67
2023/07/22 14:31:00;;;;;;;9.77;3.38;;;22.40;62.80;;;;;;6292694;28;20649;-66
2023/07/22 14:34:00;;;;;;;8.40;2.90;;;22.40;62.90;;;;;;6292033;28;20056;-67
2023/07/22 14:37:03;;;;;;;8.13;2.97;;;22.40;62.80;;;;;;6292576;28;20477;-72
2023/07/22 14:40:05;;;;;;;7.05;2.75;;;22.40;62.90;;;;;;6282782;28;20032;-66
2023/07/22 14:43:06;;;;;;;9.18;2.85;;;22.30;62.80;;;;;;6292704;28;20077;-66
2023/07/22 14:46:07;;;;;;;6.93;2.72;;;22.40;62.90;;;;;;6291975;28;20708;-68
2023/07/22 14:49:09;;;;;;;8.02;2.80;;;22.40;62.80;;;;;;6292525;28;20043;-66
2023/07/22 14:52:10;;;;;;;6.53;2.40;;;22.30;62.80;;;;;;6292048;28;20457;-66
2023/07/22 14:55:10;;;;;;;9.90;2.97;;;22.40;62.90;;;;;;6292320;28;20033;-66
2023/07/22 14:58:11;;;;;;;4.32;2.15;;;22.30;63.10;;;;;;6291949;28;20066;-66
2023/07/22 15:01:12;;;;;;;9.02;2.75;;;22.40;62.90;;;;;;6291312;28;20027;-68
2023/07/22 15:04:13;;;;;;;7.85;2.72;;;22.40;62.90;;;;;;6290212;28;20025;-68
2023/07/22 15:07:14;;;;;;;6.80;2.80;;;22.30;62.80;;;;;;6291404;28;20032;-68
2023/07/22 15:10:15;;;;;;;5.13;2.30;;;22.30;62.80;;;;;;6291836;28;20106;-67
2023/07/22 15:13:15;;;;;;;4.97;2.42;;;22.30;62.90;;;;;;6291675;28;20027;-67
2023/07/22 15:16:16;;;;;;;7.00;2.65;;;22.30;63.00;;;;;;6290432;28;20024;-68
2023/07/22 15:19:17;;;;;;;6.20;2.30;;;22.30;62.90;;;;;;6291528;28;20055;-68
2023/07/22 15:22:17;;;;;;;5.53;2.35;;;22.30;63.00;;;;;;6290585;28;20056;-68
2023/07/22 15:25:18;;;;;;;8.68;2.60;;;22.30;62.90;;;;;;6290817;28;20461;-69
2023/07/22 15:28:19;;;;;;;5.70;2.13;;;22.30;63.00;;;;;;6291233;28;20526;-68
2023/07/22 15:31:23;;;;;;;6.78;2.65;;;22.30;63.00;;;;;;6291631;28;20477;-69
2023/07/22 15:34:26;;;;;;;7.15;2.35;;;22.30;63.00;;;;;;6290844;28;20044;-68
2023/07/22 15:37:27;;;;;;;7.28;2.33;;;22.30;63.00;;;;;;6289614;28;20120;-68
2023/07/22 15:40:28;;;;;;;5.43;2.33;;;22.30;63.00;;;;;;6286564;28;20024;-68
2023/07/22 15:43:29;;;;;;;3.83;1.95;;;22.30;63.00;;;;;;6289875;28;20504;-68
2023/07/22 15:46:30;;;;;;;5.95;2.13;;;22.30;63.00;;;;;;6290998;28;20032;-68